sensor_id;sensor_type;location;lat;lon;timestamp;P1;durP1;ratioP1;P2;durP2;ratioP2
68921;SDS011;55959;51.244;5.724;2023-04-06T00:02:03;8.23;;;7.27;;
68921;SDS011;55959;51.244;5.724;2023-04-06T00:04:28;8.43;;;7.53;;
68921;SDS011;55959;51.244;5.724;2023-04-06T00:06:55;9.63;;;7.50;;
68921;SDS011;55959;51.244;5.724;2023-04-06T00:09:21;7.80;;;7.00;;
68921;SDS011;55959;51.244;5.724;2023-04-06T00:11:47;7.63;;;6.87;;
68921;SDS011;55959;51.244;5.724;2023-04-06T00:14:13;9.27;;;7.13;;
68921;SDS011;55959;51.244;5.724;2023-04-06T00:16:39;9.10;;;7.53;;
68921;SDS011;55959;51.244;5.724;2023-04-06T00:19:05;10.23;;;7.73;;
68921;SDS011;55959;51.244;5.724;2023-04-06T00:21:30;8.63;;;7.73;;
68921;SDS011;55959;51.244;5.724;2023-04-06T00:23:57;8.57;;;7.50;;
68921;SDS011;55959;51.244;5.724;2023-04-06T00:26:23;11.43;;;9.10;;
68921;SDS011;55959;51.244;5.724;2023-04-06T00:28:50;10.13;;;8.47;;
68921;SDS011;55959;51.244;5.724;2023-04-06T00:31:17;12.30;;;9.13;;
68921;SDS011;55959;51.244;5.724;2023-04-06T00:33:42;10.63;;;8.87;;
68921;SDS011;55959;51.244;5.724;2023-04-06T00:36:08;10.47;;;8.40;;
68921;SDS011;55959;51.244;5.724;2023-04-06T00:38:34;12.80;;;9.17;;
68921;SDS011;55959;51.244;5.724;2023-04-06T00:41:00;11.77;;;8.77;;
68921;SDS011;55959;51.244;5.724;2023-04-06T00:43:26;11.10;;;8.80;;
68921;SDS011;55959;51.244;5.724;2023-04-06T00:45:52;10.90;;;9.20;;
68921;SDS011;55959;51.244;5.724;2023-04-06T00:48:19;11.93;;;9.13;;
68921;SDS011;55959;51.244;5.724;2023-04-06T00:50:46;11.60;;;9.37;;
68921;SDS011;55959;51.244;5.724;2023-04-06T00:53:11;10.57;;;9.20;;
68921;SDS011;55959;51.244;5.724;2023-04-06T00:55:38;13.17;;;9.53;;
68921;SDS011;55959;51.244;5.724;2023-04-06T00:58:04;12.50;;;10.13;;
68921;SDS011;55959;51.244;5.724;2023-04-06T01:00:31;13.33;;;10.07;;
68921;SDS011;55959;51.244;5.724;2023-04-06T01:02:57;11.30;;;9.33;;
68921;SDS011;55959;51.244;5.724;2023-04-06T01:05:23;12.70;;;9.57;;
68921;SDS011;55959;51.244;5.724;2023-04-06T01:07:49;12.63;;;9.87;;
68921;SDS011;55959;51.244;5.724;2023-04-06T01:10:27;12.17;;;9.60;;
68921;SDS011;55959;51.244;5.724;2023-04-06T01:12:54;11.37;;;9.07;;
68921;SDS011;55959;51.244;5.724;2023-04-06T01:15:20;11.33;;;10.13;;
68921;SDS011;55959;51.244;5.724;2023-04-06T01:17:46;12.80;;;10.40;;
68921;SDS011;55959;51.244;5.724;2023-04-06T01:20:12;11.17;;;9.83;;
68921;SDS011;55959;51.244;5.724;2023-04-06T01:22:38;13.20;;;10.03;;
68921;SDS011;55959;51.244;5.724;2023-04-06T01:25:04;11.30;;;9.37;;
68921;SDS011;55959;51.244;5.724;2023-04-06T01:27:31;11.87;;;9.87;;
68921;SDS011;55959;51.244;5.724;2023-04-06T01:29:58;11.73;;;10.13;;
68921;SDS011;55959;51.244;5.724;2023-04-06T01:32:24;12.83;;;9.97;;
68921;SDS011;55959;51.244;5.724;2023-04-06T01:34:50;12.37;;;11.07;;
68921;SDS011;55959;51.244;5.724;2023-04-06T01:37:16;11.90;;;9.47;;
68921;SDS011;55959;51.244;5.724;2023-04-06T01:39:42;11.90;;;9.20;;
68921;SDS011;55959;51.244;5.724;2023-04-06T01:42:09;13.50;;;10.90;;
68921;SDS011;55959;51.244;5.724;2023-04-06T01:44:35;11.27;;;10.13;;
68921;SDS011;55959;51.244;5.724;2023-04-06T01:47:02;12.33;;;10.13;;
68921;SDS011;55959;51.244;5.724;2023-04-06T01:49:27;12.37;;;9.93;;
68921;SDS011;55959;51.244;5.724;2023-04-06T01:51:53;14.03;;;10.67;;
68921;SDS011;55959;51.244;5.724;2023-04-06T01:54:19;13.43;;;10.80;;
68921;SDS011;55959;51.244;5.724;2023-04-06T01:56:45;12.93;;;9.93;;
68921;SDS011;55959;51.244;5.724;2023-04-06T01:59:11;14.70;;;10.73;;
68921;SDS011;55959;51.244;5.724;2023-04-06T02:01:36;11.27;;;10.10;;
68921;SDS011;55959;51.244;5.724;2023-04-06T02:04:02;12.93;;;10.93;;
68921;SDS011;55959;51.244;5.724;2023-04-06T02:06:28;15.37;;;11.10;;
68921;SDS011;55959;51.244;5.724;2023-04-06T02:08:54;12.10;;;10.80;;
68921;SDS011;55959;51.244;5.724;2023-04-06T02:11:20;12.63;;;10.67;;
68921;SDS011;55959;51.244;5.724;2023-04-06T02:13:46;12.90;;;10.57;;
68921;SDS011;55959;51.244;5.724;2023-04-06T02:16:12;13.13;;;10.83;;
68921;SDS011;55959;51.244;5.724;2023-04-06T02:18:37;13.83;;;11.00;;
68921;SDS011;55959;51.244;5.724;2023-04-06T02:21:03;14.43;;;11.33;;
68921;SDS011;55959;51.244;5.724;2023-04-06T02:23:29;13.53;;;11.10;;
68921;SDS011;55959;51.244;5.724;2023-04-06T02:25:55;13.40;;;10.57;;
68921;SDS011;55959;51.244;5.724;2023-04-06T02:28:20;12.80;;;11.47;;
68921;SDS011;55959;51.244;5.724;2023-04-06T02:30:46;12.93;;;11.03;;
68921;SDS011;55959;51.244;5.724;2023-04-06T02:33:12;14.77;;;11.23;;
68921;SDS011;55959;51.244;5.724;2023-04-06T02:35:38;16.03;;;11.73;;
68921;SDS011;55959;51.244;5.724;2023-04-06T02:38:03;13.07;;;11.23;;
68921;SDS011;55959;51.244;5.724;2023-04-06T02:40:30;14.63;;;11.63;;
68921;SDS011;55959;51.244;5.724;2023-04-06T02:42:56;15.17;;;10.97;;
68921;SDS011;55959;51.244;5.724;2023-04-06T02:45:22;12.17;;;10.90;;
68921;SDS011;55959;51.244;5.724;2023-04-06T02:47:48;14.10;;;11.57;;
68921;SDS011;55959;51.244;5.724;2023-04-06T02:50:13;15.93;;;11.93;;
68921;SDS011;55959;51.244;5.724;2023-04-06T02:52:40;13.67;;;10.97;;
68921;SDS011;55959;51.244;5.724;2023-04-06T02:55:06;13.43;;;11.30;;
68921;SDS011;55959;51.244;5.724;2023-04-06T02:57:32;13.37;;;11.30;;
68921;SDS011;55959;51.244;5.724;2023-04-06T02:59:58;14.57;;;11.17;;
68921;SDS011;55959;51.244;5.724;2023-04-06T03:02:24;16.13;;;12.40;;
68921;SDS011;55959;51.244;5.724;2023-04-06T03:04:50;15.40;;;11.10;;
68921;SDS011;55959;51.244;5.724;2023-04-06T03:07:16;13.27;;;11.03;;
68921;SDS011;55959;51.244;5.724;2023-04-06T03:09:41;14.23;;;11.13;;
68921;SDS011;55959;51.244;5.724;2023-04-06T03:12:07;13.07;;;11.33;;
68921;SDS011;55959;51.244;5.724;2023-04-06T03:14:34;15.63;;;11.63;;
68921;SDS011;55959;51.244;5.724;2023-04-06T03:16:59;13.97;;;11.53;;
68921;SDS011;55959;51.244;5.724;2023-04-06T03:19:26;13.60;;;10.80;;
68921;SDS011;55959;51.244;5.724;2023-04-06T03:21:51;13.50;;;10.83;;
68921;SDS011;55959;51.244;5.724;2023-04-06T03:24:17;15.77;;;12.33;;
68921;SDS011;55959;51.244;5.724;2023-04-06T03:26:43;13.30;;;11.37;;
68921;SDS011;55959;51.244;5.724;2023-04-06T03:29:09;14.13;;;11.07;;
68921;SDS011;55959;51.244;5.724;2023-04-06T03:31:35;11.73;;;10.50;;
68921;SDS011;55959;51.244;5.724;2023-04-06T03:34:01;12.80;;;10.67;;
68921;SDS011;55959;51.244;5.724;2023-04-06T03:36:27;13.67;;;10.90;;
68921;SDS011;55959;51.244;5.724;2023-04-06T03:38:53;14.30;;;11.50;;
68921;SDS011;55959;51.244;5.724;2023-04-06T03:41:19;14.30;;;11.37;;
68921;SDS011;55959;51.244;5.724;2023-04-06T03:43:45;13.33;;;11.17;;
68921;SDS011;55959;51.244;5.724;2023-04-06T03:46:11;13.47;;;10.53;;
68921;SDS011;55959;51.244;5.724;2023-04-06T03:48:37;14.90;;;11.70;;
68921;SDS011;55959;51.244;5.724;2023-04-06T03:51:03;12.00;;;10.73;;
68921;SDS011;55959;51.244;5.724;2023-04-06T03:53:30;14.30;;;10.93;;
68921;SDS011;55959;51.244;5.724;2023-04-06T03:55:56;13.00;;;10.23;;
68921;SDS011;55959;51.244;5.724;2023-04-06T03:58:21;14.13;;;10.53;;
68921;SDS011;55959;51.244;5.724;2023-04-06T04:00:47;12.57;;;10.87;;
68921;SDS011;55959;51.244;5.724;2023-04-06T04:03:13;12.73;;;9.57;;
68921;SDS011;55959;51.244;5.724;2023-04-06T04:05:38;13.73;;;11.00;;
68921;SDS011;55959;51.244;5.724;2023-04-06T04:08:04;13.17;;;11.07;;
68921;SDS011;55959;51.244;5.724;2023-04-06T04:10:30;14.37;;;10.90;;
68921;SDS011;55959;51.244;5.724;2023-04-06T04:12:56;12.47;;;10.17;;
68921;SDS011;55959;51.244;5.724;2023-04-06T04:15:21;12.97;;;10.37;;
68921;SDS011;55959;51.244;5.724;2023-04-06T04:17:47;12.47;;;9.93;;
68921;SDS011;55959;51.244;5.724;2023-04-06T04:20:14;14.37;;;10.67;;
68921;SDS011;55959;51.244;5.724;2023-04-06T04:22:41;12.93;;;9.73;;
68921;SDS011;55959;51.244;5.724;2023-04-06T04:25:07;10.90;;;9.60;;
68921;SDS011;55959;51.244;5.724;2023-04-06T04:27:34;13.40;;;10.67;;
68921;SDS011;55959;51.244;5.724;2023-04-06T04:30:00;12.97;;;10.33;;
68921;SDS011;55959;51.244;5.724;2023-04-06T04:32:25;12.53;;;10.10;;
68921;SDS011;55959;51.244;5.724;2023-04-06T04:34:52;11.70;;;10.13;;
68921;SDS011;55959;51.244;5.724;2023-04-06T04:37:19;12.97;;;9.60;;
68921;SDS011;55959;51.244;5.724;2023-04-06T04:39:45;14.07;;;10.87;;
68921;SDS011;55959;51.244;5.724;2023-04-06T04:42:11;12.03;;;9.70;;
68921;SDS011;55959;51.244;5.724;2023-04-06T04:44:36;14.03;;;10.40;;
68921;SDS011;55959;51.244;5.724;2023-04-06T04:47:02;10.97;;;9.67;;
68921;SDS011;55959;51.244;5.724;2023-04-06T04:49:28;13.73;;;10.40;;
68921;SDS011;55959;51.244;5.724;2023-04-06T04:51:54;13.57;;;10.10;;
68921;SDS011;55959;51.244;5.724;2023-04-06T04:54:20;11.20;;;9.20;;
68921;SDS011;55959;51.244;5.724;2023-04-06T04:56:45;12.27;;;10.43;;
68921;SDS011;55959;51.244;5.724;2023-04-06T04:59:11;10.63;;;9.13;;
68921;SDS011;55959;51.244;5.724;2023-04-06T05:01:37;13.53;;;10.40;;
68921;SDS011;55959;51.244;5.724;2023-04-06T05:04:03;12.50;;;11.20;;
68921;SDS011;55959;51.244;5.724;2023-04-06T05:06:29;13.27;;;10.47;;
68921;SDS011;55959;51.244;5.724;2023-04-06T05:08:54;12.20;;;10.10;;
68921;SDS011;55959;51.244;5.724;2023-04-06T05:11:20;15.23;;;11.50;;
68921;SDS011;55959;51.244;5.724;2023-04-06T05:13:46;12.40;;;10.40;;
68921;SDS011;55959;51.244;5.724;2023-04-06T05:16:12;13.93;;;11.00;;
68921;SDS011;55959;51.244;5.724;2023-04-06T05:18:38;11.90;;;9.87;;
68921;SDS011;55959;51.244;5.724;2023-04-06T05:21:03;13.20;;;9.70;;
68921;SDS011;55959;51.244;5.724;2023-04-06T05:23:30;12.67;;;10.07;;
68921;SDS011;55959;51.244;5.724;2023-04-06T05:25:56;11.47;;;9.90;;
68921;SDS011;55959;51.244;5.724;2023-04-06T05:28:22;13.03;;;10.40;;
68921;SDS011;55959;51.244;5.724;2023-04-06T05:30:48;17.83;;;12.67;;
68921;SDS011;55959;51.244;5.724;2023-04-06T05:33:14;14.10;;;11.53;;
68921;SDS011;55959;51.244;5.724;2023-04-06T05:35:40;13.27;;;10.60;;
68921;SDS011;55959;51.244;5.724;2023-04-06T05:38:07;16.97;;;12.13;;
68921;SDS011;55959;51.244;5.724;2023-04-06T05:40:35;13.93;;;11.33;;
68921;SDS011;55959;51.244;5.724;2023-04-06T05:43:02;11.87;;;9.83;;
68921;SDS011;55959;51.244;5.724;2023-04-06T05:45:28;14.53;;;10.37;;
68921;SDS011;55959;51.244;5.724;2023-04-06T05:47:55;11.93;;;9.40;;
68921;SDS011;55959;51.244;5.724;2023-04-06T05:50:20;12.97;;;10.73;;
68921;SDS011;55959;51.244;5.724;2023-04-06T05:52:47;14.30;;;11.23;;
68921;SDS011;55959;51.244;5.724;2023-04-06T05:55:13;15.13;;;11.20;;
68921;SDS011;55959;51.244;5.724;2023-04-06T05:57:39;13.73;;;10.97;;
68921;SDS011;55959;51.244;5.724;2023-04-06T06:00:06;13.40;;;11.90;;
68921;SDS011;55959;51.244;5.724;2023-04-06T06:02:34;14.27;;;10.63;;
68921;SDS011;55959;51.244;5.724;2023-04-06T06:05:00;14.97;;;12.07;;
68921;SDS011;55959;51.244;5.724;2023-04-06T06:07:26;16.13;;;11.20;;
68921;SDS011;55959;51.244;5.724;2023-04-06T06:09:52;13.57;;;10.37;;
68921;SDS011;55959;51.244;5.724;2023-04-06T06:12:21;15.60;;;11.57;;
68921;SDS011;55959;51.244;5.724;2023-04-06T06:14:47;12.33;;;10.47;;
68921;SDS011;55959;51.244;5.724;2023-04-06T06:17:13;13.40;;;10.00;;
68921;SDS011;55959;51.244;5.724;2023-04-06T06:19:40;13.07;;;10.70;;
68921;SDS011;55959;51.244;5.724;2023-04-06T06:22:06;15.00;;;11.63;;
68921;SDS011;55959;51.244;5.724;2023-04-06T06:24:31;12.03;;;10.33;;
68921;SDS011;55959;51.244;5.724;2023-04-06T06:26:58;13.03;;;11.63;;
68921;SDS011;55959;51.244;5.724;2023-04-06T06:29:23;14.17;;;11.03;;
68921;SDS011;55959;51.244;5.724;2023-04-06T06:31:49;12.87;;;10.93;;
68921;SDS011;55959;51.244;5.724;2023-04-06T06:34:15;12.20;;;10.10;;
68921;SDS011;55959;51.244;5.724;2023-04-06T06:36:41;12.53;;;9.80;;
68921;SDS011;55959;51.244;5.724;2023-04-06T06:39:06;12.07;;;9.57;;
68921;SDS011;55959;51.244;5.724;2023-04-06T06:41:32;12.17;;;10.13;;
68921;SDS011;55959;51.244;5.724;2023-04-06T06:43:58;13.70;;;10.97;;
68921;SDS011;55959;51.244;5.724;2023-04-06T06:46:24;12.00;;;9.60;;
68921;SDS011;55959;51.244;5.724;2023-04-06T06:48:50;12.50;;;10.73;;
68921;SDS011;55959;51.244;5.724;2023-04-06T06:51:16;11.37;;;9.37;;
68921;SDS011;55959;51.244;5.724;2023-04-06T06:53:41;10.53;;;8.40;;
68921;SDS011;55959;51.244;5.724;2023-04-06T06:56:07;12.20;;;10.33;;
68921;SDS011;55959;51.244;5.724;2023-04-06T06:58:33;12.97;;;10.00;;
68921;SDS011;55959;51.244;5.724;2023-04-06T07:00:59;14.83;;;11.67;;
68921;SDS011;55959;51.244;5.724;2023-04-06T07:03:25;13.43;;;10.93;;
68921;SDS011;55959;51.244;5.724;2023-04-06T07:05:51;12.87;;;10.60;;
68921;SDS011;55959;51.244;5.724;2023-04-06T07:08:23;13.40;;;10.17;;
68921;SDS011;55959;51.244;5.724;2023-04-06T07:10:50;12.07;;;9.87;;
68921;SDS011;55959;51.244;5.724;2023-04-06T07:13:23;13.37;;;10.37;;
68921;SDS011;55959;51.244;5.724;2023-04-06T07:15:49;12.83;;;9.67;;
68921;SDS011;55959;51.244;5.724;2023-04-06T07:18:16;11.87;;;9.23;;
68921;SDS011;55959;51.244;5.724;2023-04-06T07:20:43;13.03;;;10.53;;
68921;SDS011;55959;51.244;5.724;2023-04-06T07:23:09;15.37;;;11.33;;
68921;SDS011;55959;51.244;5.724;2023-04-06T07:25:35;14.77;;;11.43;;
68921;SDS011;55959;51.244;5.724;2023-04-06T07:28:01;12.50;;;10.57;;
68921;SDS011;55959;51.244;5.724;2023-04-06T07:30:28;12.90;;;10.77;;
68921;SDS011;55959;51.244;5.724;2023-04-06T07:32:54;12.40;;;10.77;;
68921;SDS011;55959;51.244;5.724;2023-04-06T07:35:24;12.90;;;9.87;;
68921;SDS011;55959;51.244;5.724;2023-04-06T07:37:51;10.90;;;9.33;;
68921;SDS011;55959;51.244;5.724;2023-04-06T07:40:21;12.87;;;10.67;;
68921;SDS011;55959;51.244;5.724;2023-04-06T07:42:46;13.00;;;10.60;;
68921;SDS011;55959;51.244;5.724;2023-04-06T07:45:12;12.87;;;10.70;;
68921;SDS011;55959;51.244;5.724;2023-04-06T07:47:38;13.33;;;9.67;;
68921;SDS011;55959;51.244;5.724;2023-04-06T07:50:04;12.10;;;10.53;;
68921;SDS011;55959;51.244;5.724;2023-04-06T07:52:30;11.97;;;9.73;;
68921;SDS011;55959;51.244;5.724;2023-04-06T07:54:59;12.73;;;9.53;;
68921;SDS011;55959;51.244;5.724;2023-04-06T07:57:25;13.07;;;9.10;;
68921;SDS011;55959;51.244;5.724;2023-04-06T07:59:50;13.97;;;9.70;;
68921;SDS011;55959;51.244;5.724;2023-04-06T08:02:16;11.93;;;9.13;;
68921;SDS011;55959;51.244;5.724;2023-04-06T08:04:42;12.50;;;10.37;;
68921;SDS011;55959;51.244;5.724;2023-04-06T08:07:09;12.50;;;10.83;;
68921;SDS011;55959;51.244;5.724;2023-04-06T08:09:34;15.53;;;11.27;;
68921;SDS011;55959;51.244;5.724;2023-04-06T08:12:00;13.33;;;10.30;;
68921;SDS011;55959;51.244;5.724;2023-04-06T08:14:26;13.27;;;9.67;;
68921;SDS011;55959;51.244;5.724;2023-04-06T08:16:52;11.67;;;9.90;;
68921;SDS011;55959;51.244;5.724;2023-04-06T08:19:17;14.90;;;9.50;;
68921;SDS011;55959;51.244;5.724;2023-04-06T08:21:44;11.90;;;8.90;;
68921;SDS011;55959;51.244;5.724;2023-04-06T08:24:11;12.23;;;10.13;;
68921;SDS011;55959;51.244;5.724;2023-04-06T08:26:37;14.40;;;10.27;;
68921;SDS011;55959;51.244;5.724;2023-04-06T08:29:03;12.60;;;9.30;;
68921;SDS011;55959;51.244;5.724;2023-04-06T08:31:29;13.87;;;9.50;;
68921;SDS011;55959;51.244;5.724;2023-04-06T08:33:55;13.97;;;9.93;;
68921;SDS011;55959;51.244;5.724;2023-04-06T08:36:21;13.87;;;10.60;;
68921;SDS011;55959;51.244;5.724;2023-04-06T08:38:48;12.37;;;9.93;;
68921;SDS011;55959;51.244;5.724;2023-04-06T08:41:15;12.53;;;9.90;;
68921;SDS011;55959;51.244;5.724;2023-04-06T08:43:56;11.60;;;9.27;;
68921;SDS011;55959;51.244;5.724;2023-04-06T08:46:24;12.27;;;10.07;;
68921;SDS011;55959;51.244;5.724;2023-04-06T08:48:59;12.17;;;8.97;;
68921;SDS011;55959;51.244;5.724;2023-04-06T08:51:28;13.97;;;9.93;;
68921;SDS011;55959;51.244;5.724;2023-04-06T08:53:59;15.87;;;10.67;;
68921;SDS011;55959;51.244;5.724;2023-04-06T08:56:25;11.23;;;9.27;;
68921;SDS011;55959;51.244;5.724;2023-04-06T08:58:53;11.47;;;9.70;;
68921;SDS011;55959;51.244;5.724;2023-04-06T09:01:21;12.13;;;9.43;;
68921;SDS011;55959;51.244;5.724;2023-04-06T09:03:49;13.93;;;9.83;;
68921;SDS011;55959;51.244;5.724;2023-04-06T09:06:16;12.53;;;9.97;;
68921;SDS011;55959;51.244;5.724;2023-04-06T09:08:42;14.60;;;10.30;;
68921;SDS011;55959;51.244;5.724;2023-04-06T09:11:08;12.70;;;9.20;;
68921;SDS011;55959;51.244;5.724;2023-04-06T09:13:48;12.90;;;9.87;;
68921;SDS011;55959;51.244;5.724;2023-04-06T09:16:20;11.93;;;9.97;;
68921;SDS011;55959;51.244;5.724;2023-04-06T09:18:46;14.07;;;10.00;;
68921;SDS011;55959;51.244;5.724;2023-04-06T09:21:16;13.33;;;9.80;;
68921;SDS011;55959;51.244;5.724;2023-04-06T09:23:43;12.63;;;9.20;;
68921;SDS011;55959;51.244;5.724;2023-04-06T09:26:10;15.07;;;10.63;;
68921;SDS011;55959;51.244;5.724;2023-04-06T09:28:45;12.63;;;9.90;;
68921;SDS011;55959;51.244;5.724;2023-04-06T09:31:21;12.77;;;9.90;;
68921;SDS011;55959;51.244;5.724;2023-04-06T09:33:49;13.57;;;9.77;;
68921;SDS011;55959;51.244;5.724;2023-04-06T09:36:16;12.67;;;9.27;;
68921;SDS011;55959;51.244;5.724;2023-04-06T09:38:55;11.70;;;8.57;;
68921;SDS011;55959;51.244;5.724;2023-04-06T09:41:27;13.43;;;8.93;;
68921;SDS011;55959;51.244;5.724;2023-04-06T09:44:11;12.17;;;9.97;;
68921;SDS011;55959;51.244;5.724;2023-04-06T09:46:38;13.30;;;10.03;;
68921;SDS011;55959;51.244;5.724;2023-04-06T09:49:07;10.67;;;8.43;;
68921;SDS011;55959;51.244;5.724;2023-04-06T09:51:38;10.07;;;7.93;;
68921;SDS011;55959;51.244;5.724;2023-04-06T09:54:15;11.57;;;8.43;;
68921;SDS011;55959;51.244;5.724;2023-04-06T09:56:47;13.07;;;10.03;;
68921;SDS011;55959;51.244;5.724;2023-04-06T10:05:09;10.10;;;8.00;;
68921;SDS011;55959;51.244;5.724;2023-04-06T10:07:43;8.73;;;7.57;;
68921;SDS011;55959;51.244;5.724;2023-04-06T10:10:10;10.47;;;8.57;;
68921;SDS011;55959;51.244;5.724;2023-04-06T10:12:38;11.93;;;9.07;;
68921;SDS011;55959;51.244;5.724;2023-04-06T10:15:04;12.10;;;9.07;;
68921;SDS011;55959;51.244;5.724;2023-04-06T10:17:31;10.60;;;8.60;;
68921;SDS011;55959;51.244;5.724;2023-04-06T10:20:16;10.47;;;8.13;;
68921;SDS011;55959;51.244;5.724;2023-04-06T10:22:55;11.03;;;8.10;;
68921;SDS011;55959;51.244;5.724;2023-04-06T10:25:28;10.87;;;8.30;;
68921;SDS011;55959;51.244;5.724;2023-04-06T10:27:59;10.43;;;9.00;;
68921;SDS011;55959;51.244;5.724;2023-04-06T10:30:41;9.07;;;7.63;;
68921;SDS011;55959;51.244;5.724;2023-04-06T10:33:14;11.90;;;8.03;;
68921;SDS011;55959;51.244;5.724;2023-04-06T10:35:42;9.73;;;7.50;;
68921;SDS011;55959;51.244;5.724;2023-04-06T10:38:08;9.60;;;7.47;;
68921;SDS011;55959;51.244;5.724;2023-04-06T10:40:37;9.67;;;7.83;;
68921;SDS011;55959;51.244;5.724;2023-04-06T10:43:08;8.73;;;6.97;;
68921;SDS011;55959;51.244;5.724;2023-04-06T10:45:42;7.23;;;6.53;;
68921;SDS011;55959;51.244;5.724;2023-04-06T10:48:16;9.13;;;6.23;;
68921;SDS011;55959;51.244;5.724;2023-04-06T10:50:44;8.63;;;6.93;;
68921;SDS011;55959;51.244;5.724;2023-04-06T10:53:23;7.93;;;6.17;;
68921;SDS011;55959;51.244;5.724;2023-04-06T10:55:56;7.00;;;6.30;;
68921;SDS011;55959;51.244;5.724;2023-04-06T10:58:28;8.37;;;5.87;;
68921;SDS011;55959;51.244;5.724;2023-04-06T11:00:55;6.43;;;5.67;;
68921;SDS011;55959;51.244;5.724;2023-04-06T11:03:20;7.17;;;4.70;;
68921;SDS011;55959;51.244;5.724;2023-04-06T11:05:47;7.23;;;4.87;;
68921;SDS011;55959;51.244;5.724;2023-04-06T11:08:37;4.23;;;3.83;;
68921;SDS011;55959;51.244;5.724;2023-04-06T11:11:07;4.13;;;3.73;;
68921;SDS011;55959;51.244;5.724;2023-04-06T11:13:53;4.63;;;3.63;;
68921;SDS011;55959;51.244;5.724;2023-04-06T11:16:25;4.67;;;3.77;;
68921;SDS011;55959;51.244;5.724;2023-04-06T11:18:54;5.13;;;4.63;;
68921;SDS011;55959;51.244;5.724;2023-04-06T11:24:19;5.27;;;4.70;;
68921;SDS011;55959;51.244;5.724;2023-04-06T11:26:48;5.63;;;4.23;;
68921;SDS011;55959;51.244;5.724;2023-04-06T11:29:22;5.77;;;5.10;;
68921;SDS011;55959;51.244;5.724;2023-04-06T11:31:50;5.20;;;4.17;;
68921;SDS011;55959;51.244;5.724;2023-04-06T11:34:22;5.97;;;5.10;;
68921;SDS011;55959;51.244;5.724;2023-04-06T11:36:53;5.47;;;4.97;;
68921;SDS011;55959;51.244;5.724;2023-04-06T11:39:24;5.80;;;5.07;;
68921;SDS011;55959;51.244;5.724;2023-04-06T11:41:52;6.93;;;5.80;;
68921;SDS011;55959;51.244;5.724;2023-04-06T11:44:54;6.33;;;5.47;;
68921;SDS011;55959;51.244;5.724;2023-04-06T11:47:16;6.23;;;5.40;;
68921;SDS011;55959;51.244;5.724;2023-04-06T11:49:43;6.77;;;6.07;;
68921;SDS011;55959;51.244;5.724;2023-04-06T11:54:49;6.00;;;4.70;;
68921;SDS011;55959;51.244;5.724;2023-04-06T11:57:17;6.30;;;5.13;;
68921;SDS011;55959;51.244;5.724;2023-04-06T11:59:45;6.23;;;5.63;;
68921;SDS011;55959;51.244;5.724;2023-04-06T12:02:11;7.73;;;5.50;;
68921;SDS011;55959;51.244;5.724;2023-04-06T12:04:37;5.90;;;5.30;;
68921;SDS011;55959;51.244;5.724;2023-04-06T12:07:03;8.40;;;6.93;;
68921;SDS011;55959;51.244;5.724;2023-04-06T12:09:29;8.77;;;6.20;;
68921;SDS011;55959;51.244;5.724;2023-04-06T12:11:55;8.03;;;6.17;;
68921;SDS011;55959;51.244;5.724;2023-04-06T12:14:21;6.27;;;5.67;;
68921;SDS011;55959;51.244;5.724;2023-04-06T12:16:47;7.50;;;5.90;;
68921;SDS011;55959;51.244;5.724;2023-04-06T12:19:13;7.03;;;5.23;;
68921;SDS011;55959;51.244;5.724;2023-04-06T12:21:39;8.57;;;6.70;;
68921;SDS011;55959;51.244;5.724;2023-04-06T12:24:05;8.40;;;6.50;;
68921;SDS011;55959;51.244;5.724;2023-04-06T12:26:31;6.83;;;5.80;;
68921;SDS011;55959;51.244;5.724;2023-04-06T12:28:58;9.13;;;6.60;;
68921;SDS011;55959;51.244;5.724;2023-04-06T12:31:32;9.13;;;6.20;;
68921;SDS011;55959;51.244;5.724;2023-04-06T12:34:01;7.37;;;6.20;;
68921;SDS011;55959;51.244;5.724;2023-04-06T12:36:28;8.30;;;7.03;;
68921;SDS011;55959;51.244;5.724;2023-04-06T12:38:54;8.93;;;7.13;;
68921;SDS011;55959;51.244;5.724;2023-04-06T12:41:20;8.63;;;7.07;;
68921;SDS011;55959;51.244;5.724;2023-04-06T12:43:46;10.00;;;7.23;;
68921;SDS011;55959;51.244;5.724;2023-04-06T12:46:14;8.07;;;6.53;;
68921;SDS011;55959;51.244;5.724;2023-04-06T12:48:40;11.07;;;7.33;;
68921;SDS011;55959;51.244;5.724;2023-04-06T12:51:06;8.77;;;6.80;;
68921;SDS011;55959;51.244;5.724;2023-04-06T12:53:32;9.80;;;7.40;;
68921;SDS011;55959;51.244;5.724;2023-04-06T12:56:00;8.83;;;7.07;;
68921;SDS011;55959;51.244;5.724;2023-04-06T12:58:26;9.63;;;7.50;;
68921;SDS011;55959;51.244;5.724;2023-04-06T13:00:53;7.73;;;6.93;;
68921;SDS011;55959;51.244;5.724;2023-04-06T13:03:21;8.83;;;6.87;;
68921;SDS011;55959;51.244;5.724;2023-04-06T13:05:48;7.83;;;6.80;;
68921;SDS011;55959;51.244;5.724;2023-04-06T13:08:15;11.83;;;8.07;;
68921;SDS011;55959;51.244;5.724;2023-04-06T13:10:46;8.40;;;7.33;;
68921;SDS011;55959;51.244;5.724;2023-04-06T13:13:14;8.37;;;6.97;;
68921;SDS011;55959;51.244;5.724;2023-04-06T13:15:40;9.53;;;7.73;;
68921;SDS011;55959;51.244;5.724;2023-04-06T13:18:06;8.43;;;7.53;;
68921;SDS011;55959;51.244;5.724;2023-04-06T13:20:33;9.37;;;7.30;;
68921;SDS011;55959;51.244;5.724;2023-04-06T13:22:59;8.37;;;7.30;;
68921;SDS011;55959;51.244;5.724;2023-04-06T13:25:25;10.00;;;7.90;;
68921;SDS011;55959;51.244;5.724;2023-04-06T13:27:50;8.77;;;7.83;;
68921;SDS011;55959;51.244;5.724;2023-04-06T13:30:16;7.93;;;6.87;;
68921;SDS011;55959;51.244;5.724;2023-04-06T13:32:42;9.90;;;6.87;;
68921;SDS011;55959;51.244;5.724;2023-04-06T13:35:08;9.77;;;7.80;;
68921;SDS011;55959;51.244;5.724;2023-04-06T13:51:54;6.30;;;5.70;;
68921;SDS011;55959;51.244;5.724;2023-04-06T13:54:20;6.13;;;5.53;;
68921;SDS011;55959;51.244;5.724;2023-04-06T13:56:45;6.70;;;5.37;;
68921;SDS011;55959;51.244;5.724;2023-04-06T13:59:11;7.43;;;5.80;;
68921;SDS011;55959;51.244;5.724;2023-04-06T14:01:37;6.43;;;5.30;;
68921;SDS011;55959;51.244;5.724;2023-04-06T14:04:03;5.73;;;5.10;;
68921;SDS011;55959;51.244;5.724;2023-04-06T14:06:28;7.30;;;5.77;;
68921;SDS011;55959;51.244;5.724;2023-04-06T14:08:54;6.57;;;5.63;;
68921;SDS011;55959;51.244;5.724;2023-04-06T14:11:21;5.57;;;5.07;;
68921;SDS011;55959;51.244;5.724;2023-04-06T14:13:47;6.63;;;5.90;;
68921;SDS011;55959;51.244;5.724;2023-04-06T14:16:13;7.77;;;5.97;;
68921;SDS011;55959;51.244;5.724;2023-04-06T14:18:39;5.50;;;4.90;;
68921;SDS011;55959;51.244;5.724;2023-04-06T14:21:04;6.00;;;5.40;;
68921;SDS011;55959;51.244;5.724;2023-04-06T14:23:31;6.60;;;5.60;;
68921;SDS011;55959;51.244;5.724;2023-04-06T14:26:01;5.90;;;5.17;;
68921;SDS011;55959;51.244;5.724;2023-04-06T14:28:32;5.63;;;5.07;;
68921;SDS011;55959;51.244;5.724;2023-04-06T14:30:59;6.27;;;5.07;;
68921;SDS011;55959;51.244;5.724;2023-04-06T14:33:28;6.37;;;5.53;;
68921;SDS011;55959;51.244;5.724;2023-04-06T14:35:55;7.17;;;5.27;;
68921;SDS011;55959;51.244;5.724;2023-04-06T14:38:21;5.83;;;5.07;;
68921;SDS011;55959;51.244;5.724;2023-04-06T14:40:47;5.47;;;4.97;;
68921;SDS011;55959;51.244;5.724;2023-04-06T14:43:13;6.37;;;4.77;;
68921;SDS011;55959;51.244;5.724;2023-04-06T14:45:40;5.33;;;4.83;;
68921;SDS011;55959;51.244;5.724;2023-04-06T14:48:05;5.40;;;4.90;;
68921;SDS011;55959;51.244;5.724;2023-04-06T14:50:32;6.47;;;5.60;;
68921;SDS011;55959;51.244;5.724;2023-04-06T14:52:59;6.90;;;5.03;;
68921;SDS011;55959;51.244;5.724;2023-04-06T14:55:25;5.37;;;4.87;;
68921;SDS011;55959;51.244;5.724;2023-04-06T14:57:51;6.27;;;5.40;;
68921;SDS011;55959;51.244;5.724;2023-04-06T15:00:17;6.83;;;5.83;;